Time;durP1;ratioP1;P1;durP2;ratioP2;P2;SDS_P1;SDS_P2;PMS_P1;PMS_P2;Temp;Humidity;BMP_temperature;BMP_pressure;BME280_temperature;BME280_humidity;BME280_pressure;Samples;Min_cycle;Max_cycle;Signal;HPM_P1;HPM_P2
2024/01/22 00:02:58;;;;;;;7.80;4.60;;;;;;;-0.12;63.58;99889.14;226626;1273;22558;-74
2024/01/22 00:08:04;;;;;;;8.30;4.00;;;;;;;-0.11;63.28;99872.48;226636;1276;22585;-74
2024/01/22 00:13:06;;;;;;;8.20;5.00;;;;;;;-0.14;63.35;99879.61;226626;1273;22555;-75
2024/01/22 00:18:08;;;;;;;7.80;4.20;;;;;;;-0.15;63.04;99869.14;226613;1272;22555;-74
2024/01/22 00:23:10;;;;;;;9.20;4.60;;;;;;;-0.16;62.94;99861.21;226465;1274;22743;-74
2024/01/22 00:28:12;;;;;;;7.40;4.30;;;;;;;-0.17;63.00;99858.34;226665;1275;22543;-75
2024/01/22 00:33:14;;;;;;;8.50;4.30;;;;;;;-0.18;62.77;99857.88;226627;1271;22593;-74
2024/01/22 00:38:16;;;;;;;8.80;4.50;;;;;;;-0.15;62.75;99869.48;226376;1276;25520;-74
2024/01/22 00:43:22;;;;;;;5.10;2.80;;;;;;;-0.11;62.58;99863.29;226633;1276;22563;-74
2024/01/22 00:48:24;;;;;;;6.50;3.90;;;;;;;-0.09;62.44;99858.84;226602;1274;22526;-73
2024/01/22 00:53:26;;;;;;;7.90;4.40;;;;;;;-0.10;62.69;99870.02;226627;1265;22620;-74
2024/01/22 00:58:28;;;;;;;6.50;4.00;;;;;;;-0.16;62.75;99872.30;226640;1274;22584;-74
2024/01/22 01:03:30;;;;;;;7.20;4.60;;;;;;;-0.23;62.82;99866.86;226674;1272;22550;-73
2024/01/22 01:08:32;;;;;;;7.40;5.20;;;;;;;-0.30;62.73;99867.59;226664;1265;22553;-74
2024/01/22 01:13:34;;;;;;;8.20;4.90;;;;;;;-0.36;62.96;99866.73;226704;1274;22549;-74
2024/01/22 01:18:36;;;;;;;7.30;4.70;;;;;;;-0.41;63.00;99867.70;226657;1274;22550;-74
2024/01/22 01:23:38;;;;;;;8.30;5.70;;;;;;;-0.48;63.70;99866.95;226631;1274;22668;-74
2024/01/22 01:28:40;;;;;;;7.30;4.40;;;;;;;-0.58;63.89;99852.66;226628;1275;22539;-74
2024/01/22 01:33:42;;;;;;;8.40;5.30;;;;;;;-0.69;63.93;99846.40;226562;1272;22610;-74
2024/01/22 01:38:45;;;;;;;8.70;5.00;;;;;;;-0.78;64.04;99834.30;226621;1272;22824;-74
2024/01/22 01:43:47;;;;;;;10.00;6.00;;;;;;;-0.82;64.32;99832.80;226658;1274;25376;-74
2024/01/22 01:48:50;;;;;;;9.10;5.90;;;;;;;-0.87;64.31;99828.80;226661;1275;22549;-74
2024/01/22 01:53:55;;;;;;;8.80;5.70;;;;;;;-0.92;64.45;99827.39;226641;1268;22621;-74
2024/01/22 01:58:57;;;;;;;10.20;6.50;;;;;;;-0.95;64.39;99813.38;226711;1272;22657;-73
2024/01/22 02:03:59;;;;;;;10.50;6.40;;;;;;;-1.03;64.80;99798.45;226685;1268;22650;-74
2024/01/22 02:09:01;;;;;;;11.20;6.50;;;;;;;-1.14;64.66;99785.97;226572;1274;22554;-74
2024/01/22 02:14:03;;;;;;;12.50;7.00;;;;;;;-1.28;65.37;99778.61;226701;1252;23786;-73
2024/01/22 02:19:06;;;;;;;12.00;7.10;;;;;;;-1.38;65.76;99779.60;226504;1276;22550;-73
2024/01/22 02:24:09;;;;;;;9.70;6.40;;;;;;;-1.47;65.81;99796.31;226584;1259;22544;-74
2024/01/22 02:29:12;;;;;;;11.50;7.20;;;;;;;-1.51;66.24;99792.11;226533;1274;28493;-74
2024/01/22 02:34:14;;;;;;;9.80;5.80;;;;;;;-1.59;65.92;99790.13;226624;1274;22672;-73
2024/01/22 02:39:16;;;;;;;9.60;6.70;;;;;;;-1.66;66.68;99776.02;226453;1276;22543;-73
2024/01/22 02:44:18;;;;;;;11.60;7.40;;;;;;;-1.73;66.83;99766.56;226487;1274;22610;-74
2024/01/22 02:49:20;;;;;;;12.40;7.30;;;;;;;-1.80;67.11;99752.27;226666;1272;22534;-73
2024/01/22 02:54:23;;;;;;;10.10;6.50;;;;;;;-1.83;67.11;99745.05;226679;1265;22546;-72
2024/01/22 02:59:25;;;;;;;11.30;6.50;;;;;;;-1.83;67.39;99743.82;226669;1276;22586;-73
2024/01/22 03:04:27;;;;;;;10.90;6.70;;;;;;;-1.81;67.19;99745.11;226673;1272;22681;-72
2024/01/22 03:09:29;;;;;;;10.00;6.40;;;;;;;-1.82;67.19;99744.80;226662;1272;25536;-72
2024/01/22 03:14:31;;;;;;;9.30;6.10;;;;;;;-1.84;67.20;99731.77;226616;1271;22558;-72
2024/01/22 03:19:33;;;;;;;10.80;5.80;;;;;;;-1.84;67.15;99713.16;226692;1276;24932;-73
2024/01/22 03:24:37;;;;;;;10.30;5.60;;;;;;;-1.84;67.04;99709.02;226677;1274;22606;-72
2024/01/22 03:29:39;;;;;;;10.50;6.00;;;;;;;-1.87;67.45;99715.22;226687;1276;24237;-72
2024/01/22 03:34:41;;;;;;;8.80;5.90;;;;;;;-1.92;67.49;99712.52;226724;1272;22616;-72
2024/01/22 03:39:43;;;;;;;10.40;6.00;;;;;;;-1.91;67.41;99710.60;226691;1276;22581;-72
2024/01/22 03:44:46;;;;;;;8.00;5.10;;;;;;;-1.89;67.31;99722.57;226644;1276;22606;-72
2024/01/22 03:49:48;;;;;;;11.10;5.80;;;;;;;-1.83;66.98;99723.12;226667;1272;24942;-72
2024/01/22 03:54:50;;;;;;;9.70;5.60;;;;;;;-1.78;67.01;99710.55;226648;1271;25661;-72
2024/01/22 03:59:53;;;;;;;9.60;5.70;;;;;;;-1.78;66.51;99688.91;226587;1272;22598;-72
2024/01/22 04:04:54;;;;;;;8.60;5.60;;;;;;;-1.74;66.82;99685.10;226582;1272;24612;-71
2024/01/22 04:09:56;;;;;;;9.30;6.30;;;;;;;-1.69;66.55;99682.07;226619;1276;22720;-72
2024/01/22 04:14:58;;;;;;;10.40;5.70;;;;;;;-1.67;66.86;99671.43;226631;1271;22546;-72
2024/01/22 04:20:00;;;;;;;9.20;6.00;;;;;;;-1.64;66.82;99669.72;226639;1276;22543;-72
2024/01/22 04:25:03;;;;;;;10.60;6.00;;;;;;;-1.63;66.58;99678.80;226639;1276;22562;-72
2024/01/22 04:30:06;;;;;;;8.70;5.80;;;;;;;-1.64;66.57;99676.24;226616;1274;22733;-71
2024/01/22 04:35:08;;;;;;;10.40;6.10;;;;;;;-1.66;66.42;99673.27;226648;1276;24247;-72
2024/01/22 04:40:11;;;;;;;10.00;7.10;;;;;;;-1.69;66.49;99666.33;226601;1276;22622;-72
2024/01/22 04:45:14;;;;;;;9.90;5.90;;;;;;;-1.68;66.02;99656.48;226587;1276;24430;-72
2024/01/22 04:50:16;;;;;;;9.30;6.30;;;;;;;-1.68;66.38;99650.41;226612;1272;23004;-72
2024/01/22 04:55:18;;;;;;;9.50;6.00;;;;;;;-1.71;66.24;99645.73;226613;1272;22546;-72
2024/01/22 05:00:24;;;;;;;11.60;7.10;;;;;;;-1.73;66.39;99641.56;226593;1276;25705;-72
2024/01/22 05:05:27;;;;;;;12.70;7.50;;;;;;;-1.78;66.53;99631.77;226620;1276;22531;-72
2024/01/22 05:10:29;;;;;;;14.10;8.10;;;;;;;-1.86;66.66;99631.59;226622;1274;22554;-72
2024/01/22 05:15:31;;;;;;;15.80;8.20;;;;;;;-2.00;66.76;99620.17;226655;1272;22971;-72
2024/01/22 05:20:33;;;;;;;15.10;8.80;;;;;;;-2.15;66.93;99607.05;226697;1272;22565;-72
2024/01/22 05:25:35;;;;;;;15.30;9.30;;;;;;;-2.27;66.98;99597.20;226647;1275;22546;-72
2024/01/22 05:30:37;;;;;;;18.10;9.20;;;;;;;-2.37;67.54;99591.75;226580;1276;22616;-71
2024/01/22 05:35:39;;;;;;;17.20;10.00;;;;;;;-2.46;67.54;99585.88;226602;1273;22630;-71
2024/01/22 05:40:41;;;;;;;20.30;11.60;;;;;;;-2.53;67.90;99580.24;226600;1276;22689;-71
2024/01/22 05:45:43;;;;;;;23.50;11.90;;;;;;;-2.60;68.07;99573.40;226602;1275;22650;-71
2024/01/22 05:50:45;;;;;;;20.50;10.50;;;;;;;-2.66;68.15;99559.56;226641;1276;22695;-71
2024/01/22 05:55:49;;;;;;;20.60;10.00;;;;;;;-2.70;68.07;99553.81;226585;1276;22603;-71
2024/01/22 06:00:51;;;;;;;17.90;10.10;;;;;;;-2.74;68.33;99545.05;226619;1276;23064;-71
2024/01/22 06:05:53;;;;;;;16.80;9.80;;;;;;;-2.74;68.50;99523.02;226642;1272;22681;-71
2024/01/22 06:10:55;;;;;;;17.40;9.10;;;;;;;-2.74;68.43;99506.61;226576;1276;23698;-71
2024/01/22 06:15:58;;;;;;;16.30;9.50;;;;;;;-2.73;68.83;99498.96;226592;1276;25842;-71
2024/01/22 06:21:00;;;;;;;15.90;9.30;;;;;;;-2.70;68.36;99497.94;226553;1272;25511;-71
2024/01/22 06:26:02;;;;;;;15.40;8.50;;;;;;;-2.69;68.61;99502.52;226588;1272;22578;-71
2024/01/22 06:31:05;;;;;;;16.10;9.30;;;;;;;-2.68;68.35;99508.35;226647;1276;23231;-71
2024/01/22 06:36:07;;;;;;;20.40;10.50;;;;;;;-2.70;68.58;99507.56;226669;1273;22546;-71
2024/01/22 06:41:11;;;;;;;20.90;10.00;;;;;;;-2.71;68.28;99504.73;226593;1272;22585;-72
2024/01/22 06:46:13;;;;;;;17.60;9.70;;;;;;;-2.72;68.90;99492.34;226528;1269;22546;-72
2024/01/22 06:51:16;;;;;;;17.30;10.00;;;;;;;-2.71;68.60;99477.83;226575;1276;22607;-72
2024/01/22 06:56:31;;;;;;;18.60;9.40;;;;;;;-2.66;68.57;99470.64;226589;1276;22597;-70
2024/01/22 07:01:33;;;;;;;15.20;8.10;;;;;;;-2.58;68.64;99455.15;226219;1262;22680;-72
2024/01/22 07:06:36;;;;;;;14.20;8.10;;;;;;;-2.48;68.51;99445.77;226400;1268;24212;-73
2024/01/22 07:11:38;;;;;;;18.40;9.60;;;;;;;-2.37;68.44;99435.84;226217;1269;25466;-72
2024/01/22 07:16:41;;;;;;;15.80;8.50;;;;;;;-2.25;68.51;99425.79;226355;1273;23019;-71
2024/01/22 07:21:46;;;;;;;23.50;10.20;;;;;;;-2.12;68.17;99422.79;225887;1254;22636;-74
2024/01/22 07:26:48;;;;;;;18.70;9.10;;;;;;;-1.98;68.01;99417.92;225817;1272;25567;-71
2024/01/22 07:31:50;;;;;;;17.10;9.60;;;;;;;-1.83;67.71;99419.80;225498;1270;22555;-72
2024/01/22 07:36:53;;;;;;;16.60;9.30;;;;;;;-1.72;67.75;99427.21;225725;1270;22605;-71
2024/01/22 07:41:55;;;;;;;16.40;9.70;;;;;;;-1.60;67.06;99425.91;225786;1273;26018;-73
2024/01/22 07:46:58;;;;;;;15.90;8.80;;;;;;;-1.44;67.16;99420.59;225740;1270;22613;-72
2024/01/22 07:52:00;;;;;;;13.90;7.70;;;;;;;-0.94;67.43;99410.80;225977;1260;22571;-73
2024/01/22 07:57:02;;;;;;;16.50;9.20;;;;;;;-0.54;66.55;99387.40;225995;1266;215808;-75
2024/01/22 08:02:06;;;;;;;16.00;8.60;;;;;;;-0.49;65.41;99376.86;226087;1269;22593;-73
2024/01/22 08:07:08;;;;;;;14.90;8.80;;;;;;;-0.41;65.14;99361.73;225957;1269;22712;-73
2024/01/22 08:12:10;;;;;;;15.20;8.40;;;;;;;-0.28;64.88;99357.23;225515;1261;22587;-74
2024/01/22 08:17:12;;;;;;;11.20;6.50;;;;;;;-0.10;64.95;99354.91;225651;1253;22960;-74
2024/01/22 08:22:14;;;;;;;13.10;7.40;;;;;;;0.14;64.45;99357.94;225862;1253;22573;-75
2024/01/22 08:30:35;;;;;;;13.00;6.10;;;;;;;0.74;62.93;99341.95;218883;1291;545069;-74
2024/01/22 08:35:38;;;;;;;15.30;7.70;;;;;;;0.92;62.23;99327.33;224166;1280;22567;-74
2024/01/22 08:40:40;;;;;;;10.60;6.10;;;;;;;1.12;61.92;99300.11;224091;1281;146552;-79
2024/01/22 08:45:42;;;;;;;12.30;6.80;;;;;;;1.33;60.99;99291.73;224914;1282;22552;-76
2024/01/22 08:50:45;;;;;;;10.20;6.20;;;;;;;1.55;60.62;99291.28;224752;1281;22570;-74
2024/01/22 08:55:48;;;;;;;9.40;6.00;;;;;;;1.76;60.08;99287.84;224711;1269;22541;-73
2024/01/22 09:00:50;;;;;;;9.80;5.10;;;;;;;1.92;59.66;99289.04;224766;1272;22798;-73
2024/01/22 09:05:55;;;;;;;16.30;6.00;;;;;;;2.13;59.00;99291.41;224853;1260;22566;-75
2024/01/22 09:10:57;;;;;;;11.00;6.00;;;;;;;2.31;57.95;99278.80;224829;1279;22593;-75
2024/01/22 09:15:59;;;;;;;12.40;6.80;;;;;;;2.50;57.34;99273.96;224875;1278;22592;-74
2024/01/22 09:21:03;;;;;;;10.90;6.10;;;;;;;2.67;57.25;99271.83;224812;1276;22563;-75
2024/01/22 09:26:05;;;;;;;16.80;10.50;;;;;;;2.79;56.16;99291.73;224749;1268;22671;-75
2024/01/22 09:31:07;;;;;;;8.60;4.90;;;;;;;2.87;55.99;99281.64;224763;1269;22549;-74
2024/01/22 09:36:09;;;;;;;8.50;4.90;;;;;;;2.89;56.41;99285.02;224818;1275;22579;-74
2024/01/22 09:41:13;;;;;;;9.90;6.20;;;;;;;2.85;56.13;99290.84;224733;1271;25285;-74
2024/01/22 09:46:15;;;;;;;7.40;4.50;;;;;;;2.79;55.58;99292.22;224683;1270;22555;-74
2024/01/22 09:51:17;;;;;;;10.30;5.20;;;;;;;2.75;55.24;99297.64;224801;1276;23025;-74
2024/01/22 09:56:21;;;;;;;9.30;5.10;;;;;;;2.72;55.19;99310.05;225090;1277;23015;-74
2024/01/22 10:01:23;;;;;;;9.30;5.60;;;;;;;2.72;54.85;99306.41;226005;1264;24452;-75
2024/01/22 10:06:28;;;;;;;9.00;5.60;;;;;;;2.75;55.55;99305.61;225926;1272;22615;-75
2024/01/22 10:11:31;;;;;;;9.70;5.30;;;;;;;2.82;55.89;99301.05;225664;1277;22543;-73
2024/01/22 10:16:33;;;;;;;10.30;4.60;;;;;;;2.95;55.90;99306.75;225760;1274;22562;-73
2024/01/22 10:21:37;;;;;;;7.10;3.80;;;;;;;3.11;54.99;99299.30;225591;1256;22546;-75
2024/01/22 10:26:39;;;;;;;6.10;4.50;;;;;;;3.21;54.71;99276.19;225479;1271;22553;-75
2024/01/22 10:31:57;;;;;;;7.70;4.60;;;;;;;3.25;54.69;99267.23;225287;1271;25358;-74
2024/01/22 10:37:17;;;;;;;5.90;3.80;;;;;;;3.27;54.26;99262.83;225296;1265;22592;-74
2024/01/22 10:42:19;;;;;;;7.20;4.00;;;;;;;3.32;53.62;99255.98;225298;1260;22574;-73
2024/01/22 10:47:21;;;;;;;6.40;4.10;;;;;;;3.43;53.74;99248.70;225282;1265;24307;-74
2024/01/22 10:52:25;;;;;;;7.10;4.50;;;;;;;3.53;54.17;99240.52;225143;1272;22621;-74
2024/01/22 10:57:40;;;;;;;8.10;3.80;;;;;;;3.71;53.82;99240.16;225137;1272;27119;-73
2024/01/22 11:02:46;;;;;;;10.00;4.00;;;;;;;3.92;53.26;99246.02;225296;1265;22936;-73
2024/01/22 11:07:53;;;;;;;7.50;4.00;;;;;;;4.12;53.39;99245.29;225406;1256;22551;-73
2024/01/22 11:12:56;;;;;;;4.90;3.70;;;;;;;4.38;52.82;99250.63;225603;1265;22549;-73
2024/01/22 11:17:58;;;;;;;6.50;3.40;;;;;;;4.60;52.52;99247.95;225556;1277;22573;-73
2024/01/22 11:23:02;;;;;;;10.20;4.20;;;;;;;4.68;52.08;99224.91;225727;1272;22597;-73
2024/01/22 11:28:09;;;;;;;6.60;3.60;;;;;;;4.66;51.83;99186.22;225883;1255;22646;-73
2024/01/22 11:33:21;;;;;;;7.90;3.90;;;;;;;4.60;51.18;99183.91;225741;1265;22565;-73
2024/01/22 11:38:47;;;;;;;6.40;3.80;;;;;;;4.63;51.26;99185.94;225854;1275;22545;-74
2024/01/22 11:43:50;;;;;;;5.90;3.60;;;;;;;4.64;50.52;99189.14;225920;1272;22641;-74
2024/01/22 11:48:54;;;;;;;5.50;3.10;;;;;;;4.65;51.13;99197.59;225988;1276;23601;-74
2024/01/22 11:53:57;;;;;;;6.70;4.10;;;;;;;4.74;50.22;99196.27;225616;1272;22539;-74
2024/01/22 11:59:01;;;;;;;10.30;4.00;;;;;;;4.85;50.63;99211.13;225756;1258;25341;-73
2024/01/22 12:04:10;;;;;;;8.20;4.00;;;;;;;4.90;50.17;99187.82;225666;1261;22543;-74
2024/01/22 12:09:19;;;;;;;8.00;3.90;;;;;;;4.91;49.67;99188.16;225761;1272;22550;-74
2024/01/22 12:14:24;;;;;;;7.00;4.00;;;;;;;4.89;50.09;99186.12;225543;1260;22572;-74
2024/01/22 12:19:25;;;;;;;6.90;4.10;;;;;;;4.85;50.52;99169.21;225860;1272;22563;-74
2024/01/22 12:24:27;;;;;;;6.50;3.80;;;;;;;4.77;49.71;99170.55;225877;1272;22565;-73
2024/01/22 12:29:30;;;;;;;7.40;4.00;;;;;;;4.70;50.66;99157.23;225783;1278;22567;-73
2024/01/22 12:34:34;;;;;;;8.00;4.70;;;;;;;4.68;51.31;99135.52;225763;1276;25324;-74
2024/01/22 12:39:37;;;;;;;6.40;4.10;;;;;;;4.71;51.37;99111.26;225878;1272;22561;-73
2024/01/22 12:44:39;;;;;;;6.30;3.80;;;;;;;4.72;51.10;99099.60;225807;1256;22921;-73
2024/01/22 12:49:42;;;;;;;7.80;4.70;;;;;;;4.72;50.72;99077.78;225915;1256;22549;-74
2024/01/22 12:54:44;;;;;;;7.80;4.60;;;;;;;4.73;51.45;99049.40;225663;1256;22622;-74
2024/01/22 12:59:47;;;;;;;6.20;4.00;;;;;;;4.76;50.97;99063.79;225826;1268;22654;-74
2024/01/22 13:04:50;;;;;;;5.70;3.60;;;;;;;4.82;50.60;99065.86;225912;1271;22552;-74
2024/01/22 13:09:51;;;;;;;6.60;3.40;;;;;;;4.84;50.03;99066.23;225734;1263;22560;-74
2024/01/22 13:14:55;;;;;;;7.40;4.20;;;;;;;4.79;50.40;99086.70;225532;1258;22574;-75
2024/01/22 13:19:58;;;;;;;6.80;4.20;;;;;;;4.75;50.18;99093.55;225517;1273;22660;-75
2024/01/22 13:25:00;;;;;;;8.30;4.20;;;;;;;4.68;51.07;99075.75;225549;1271;24678;-75
2024/01/22 13:30:02;;;;;;;7.10;4.30;;;;;;;4.62;51.46;99046.40;225480;1268;22545;-75
2024/01/22 13:35:05;;;;;;;6.50;4.20;;;;;;;4.54;51.73;99033.05;225600;1255;22550;-75
2024/01/22 13:40:10;;;;;;;7.40;4.10;;;;;;;4.43;51.17;99036.75;225620;1271;24283;-75
2024/01/22 13:45:12;;;;;;;7.00;4.10;;;;;;;4.33;51.00;99052.67;225480;1274;22569;-75
2024/01/22 13:50:14;;;;;;;8.00;4.60;;;;;;;4.27;51.30;99060.35;225307;1268;22555;-76
2024/01/22 13:55:16;;;;;;;7.30;4.30;;;;;;;4.19;51.41;99057.40;226065;1262;22553;-76
2024/01/22 14:00:18;;;;;;;7.30;4.00;;;;;;;4.12;51.43;99043.84;225713;1253;22547;-74
2024/01/22 14:05:20;;;;;;;8.90;4.60;;;;;;;4.06;51.11;99061.63;225881;1267;22544;-74
2024/01/22 14:10:23;;;;;;;5.70;3.50;;;;;;;4.01;51.87;99060.98;225834;1261;22557;-75
2024/01/22 14:15:26;;;;;;;6.20;3.80;;;;;;;3.95;51.51;99019.45;226164;1255;22588;-74
2024/01/22 14:20:28;;;;;;;6.80;3.90;;;;;;;3.87;51.83;99007.80;226119;1268;22651;-75
2024/01/22 14:25:31;;;;;;;6.70;4.00;;;;;;;3.82;51.31;99006.98;226191;1267;22560;-76
2024/01/22 14:30:34;;;;;;;7.10;3.70;;;;;;;3.78;51.84;98983.00;226593;1268;23322;-75
2024/01/22 14:35:36;;;;;;;7.20;4.60;;;;;;;3.69;52.66;98935.71;226261;1268;22543;-76
2024/01/22 14:40:38;;;;;;;8.70;5.20;;;;;;;3.62;53.69;98881.02;226415;1258;25937;-75
2024/01/22 14:45:42;;;;;;;9.40;5.70;;;;;;;3.58;54.04;98941.95;226307;1269;22569;-74
2024/01/22 14:50:44;;;;;;;8.00;4.40;;;;;;;3.59;54.07;98930.20;226469;1269;22543;-73
2024/01/22 14:55:46;;;;;;;9.60;4.80;;;;;;;3.56;54.17;98917.26;226341;1271;24462;-73
2024/01/22 15:00:49;;;;;;;7.80;4.20;;;;;;;3.44;55.20;98893.23;226309;1257;22555;-73
2024/01/22 15:05:51;;;;;;;8.60;4.60;;;;;;;3.29;56.33;98879.22;226198;1273;22818;-72
2024/01/22 15:10:53;;;;;;;10.20;4.50;;;;;;;3.10;57.36;98861.70;226173;1274;22559;-73
2024/01/22 15:15:55;;;;;;;9.00;4.90;;;;;;;2.94;58.19;98847.52;226140;1275;22559;-73
2024/01/22 15:20:57;;;;;;;8.10;4.20;;;;;;;2.85;58.35;98851.13;226522;1275;23231;-72
2024/01/22 15:25:59;;;;;;;8.40;4.70;;;;;;;2.81;58.31;98859.49;226441;1274;22550;-73
2024/01/22 15:31:01;;;;;;;7.50;4.40;;;;;;;2.80;58.03;98864.97;226816;1275;22548;-72
2024/01/22 15:36:06;;;;;;;9.00;5.30;;;;;;;2.84;57.37;98849.67;226828;1272;22645;-73
2024/01/22 15:41:09;;;;;;;10.40;5.10;;;;;;;2.87;57.50;98860.53;226500;1274;22559;-73
2024/01/22 15:46:11;;;;;;;8.80;5.10;;;;;;;2.92;57.26;98856.27;226771;1271;22567;-73
2024/01/22 15:51:14;;;;;;;10.20;4.90;;;;;;;2.98;56.89;98872.29;226715;1272;24245;-74
2024/01/22 15:56:15;;;;;;;9.60;5.50;;;;;;;3.02;56.72;98883.00;226775;1271;22615;-73
2024/01/22 16:01:18;;;;;;;11.70;5.90;;;;;;;3.06;56.12;98876.79;226793;1271;22562;-74
2024/01/22 16:06:25;;;;;;;11.90;6.20;;;;;;;3.10;55.88;98872.60;226739;1274;22526;-74
2024/01/22 16:11:27;;;;;;;8.60;5.10;;;;;;;3.10;55.54;98867.30;226596;1271;22564;-73
2024/01/22 16:16:30;;;;;;;8.60;4.40;;;;;;;3.09;55.36;98866.85;226698;1263;22557;-72
2024/01/22 16:21:34;;;;;;;7.60;4.10;;;;;;;3.10;54.73;98857.10;226768;1274;25301;-74
2024/01/22 16:26:39;;;;;;;8.10;4.50;;;;;;;3.10;54.75;98852.05;226737;1274;22547;-73
2024/01/22 16:31:42;;;;;;;8.30;4.70;;;;;;;3.07;55.16;98854.35;226499;1274;22555;-73
2024/01/22 16:36:44;;;;;;;9.90;5.30;;;;;;;3.03;55.81;98855.04;226675;1274;22566;-74
2024/01/22 16:41:46;;;;;;;9.00;5.10;;;;;;;3.01;55.93;98849.02;226505;1274;22601;-74
2024/01/22 16:46:49;;;;;;;10.30;6.00;;;;;;;2.99;56.21;98851.09;226479;1274;22538;-73
2024/01/22 16:51:50;;;;;;;10.40;5.60;;;;;;;2.99;56.27;98838.77;226673;1271;22537;-74
2024/01/22 16:56:52;;;;;;;12.20;6.00;;;;;;;3.00;56.22;98860.77;226735;1274;22543;-73
2024/01/22 17:01:56;;;;;;;10.10;5.30;;;;;;;3.05;56.66;98878.39;226525;1275;22551;-74
2024/01/22 17:07:09;;;;;;;9.50;5.70;;;;;;;3.10;56.44;98873.02;226771;1272;25323;-73
2024/01/22 17:12:11;;;;;;;8.90;4.90;;;;;;;3.15;56.10;98848.61;226506;1274;22540;-73
2024/01/22 17:17:13;;;;;;;9.80;5.60;;;;;;;3.14;55.98;98832.98;226729;1274;22646;-73
2024/01/22 17:22:16;;;;;;;11.30;5.90;;;;;;;3.10;56.30;98821.02;226766;1268;22617;-73
2024/01/22 17:27:18;;;;;;;13.10;5.30;;;;;;;3.06;56.29;98793.05;226638;1275;22545;-73
2024/01/22 17:32:20;;;;;;;13.40;6.80;;;;;;;3.03;56.63;98774.21;226764;1275;22546;-74
2024/01/22 17:37:22;;;;;;;14.20;7.40;;;;;;;2.99;56.96;98768.48;226754;1258;22547;-73
2024/01/22 17:42:26;;;;;;;11.80;6.90;;;;;;;2.97;57.09;98763.98;226704;1271;23050;-74
2024/01/22 17:47:30;;;;;;;11.70;6.00;;;;;;;2.98;56.98;98774.98;226479;1275;25323;-73
2024/01/22 17:52:32;;;;;;;12.20;6.40;;;;;;;3.01;56.95;98775.92;226516;1274;22760;-73
2024/01/22 17:57:34;;;;;;;10.10;5.90;;;;;;;3.05;56.89;98785.67;226775;1275;22548;-72
2024/01/22 18:02:36;;;;;;;7.70;5.20;;;;;;;3.10;56.48;98790.42;226504;1275;22539;-74
2024/01/22 18:07:38;;;;;;;8.70;5.60;;;;;;;3.12;56.74;98807.63;226697;1274;24230;-72
2024/01/22 18:12:43;;;;;;;9.10;6.00;;;;;;;3.08;56.97;98799.14;226767;1271;22537;-74
2024/01/22 18:17:45;;;;;;;10.20;6.40;;;;;;;3.07;56.96;98819.56;226797;1271;22542;-73
2024/01/22 18:22:48;;;;;;;11.80;6.90;;;;;;;3.06;57.46;98826.50;226469;1275;22564;-73
2024/01/22 18:27:50;;;;;;;11.10;6.60;;;;;;;3.02;58.18;98807.48;226671;1270;25442;-75
2024/01/22 18:32:52;;;;;;;12.30;7.40;;;;;;;2.99;58.65;98808.24;226701;1274;22601;-74
2024/01/22 18:37:54;;;;;;;10.40;6.50;;;;;;;2.96;59.02;98800.02;226774;1273;22530;-73
2024/01/22 18:42:57;;;;;;;10.70;7.10;;;;;;;2.92;59.75;98787.61;226605;1275;22543;-73
2024/01/22 18:47:59;;;;;;;11.90;7.10;;;;;;;2.86;60.14;98784.98;226759;1269;24353;-74
2024/01/22 18:53:02;;;;;;;11.70;7.20;;;;;;;2.83;60.49;98796.39;226726;1274;22550;-73
2024/01/22 18:58:04;;;;;;;12.80;7.40;;;;;;;2.81;60.48;98795.16;226532;1274;22764;-73
2024/01/22 19:03:05;;;;;;;10.70;6.20;;;;;;;2.82;60.54;98777.98;226694;1270;22527;-73
2024/01/22 19:08:07;;;;;;;9.60;6.30;;;;;;;2.78;61.02;98763.27;226763;1275;22603;-73
2024/01/22 19:13:12;;;;;;;12.60;7.50;;;;;;;2.69;61.70;98765.95;226537;1275;24928;-74
2024/01/22 19:18:14;;;;;;;14.20;8.50;;;;;;;2.61;62.13;98768.47;226696;1274;22555;-74
2024/01/22 19:23:16;;;;;;;13.70;8.00;;;;;;;2.55;62.59;98775.63;226773;1274;22548;-73
2024/01/22 19:28:18;;;;;;;16.10;9.30;;;;;;;2.50;63.17;98777.48;226682;1274;22546;-73
2024/01/22 19:33:19;;;;;;;15.70;9.80;;;;;;;2.43;63.81;98794.95;226629;1275;22546;-74
2024/01/22 19:38:21;;;;;;;12.20;7.70;;;;;;;2.35;64.52;98800.66;226717;1275;22533;-73
2024/01/22 19:43:26;;;;;;;13.20;9.00;;;;;;;2.28;65.90;98793.02;226500;1274;22546;-74
2024/01/22 19:48:28;;;;;;;17.10;8.80;;;;;;;2.19;66.80;98791.75;226736;1271;22551;-73
2024/01/22 19:53:31;;;;;;;15.60;9.10;;;;;;;2.10;67.91;98798.55;226734;1273;22549;-74
2024/01/22 19:58:34;;;;;;;15.30;10.00;;;;;;;2.03;68.90;98783.88;226714;1273;22554;-73
2024/01/22 20:03:36;;;;;;;16.90;10.00;;;;;;;2.00;69.30;98797.02;226556;1275;24358;-75
2024/01/22 20:08:38;;;;;;;14.30;9.40;;;;;;;2.00;69.46;98813.67;226724;1268;22550;-73
2024/01/22 20:13:41;;;;;;;12.80;8.70;;;;;;;2.02;69.34;98818.52;226820;1272;22537;-73
2024/01/22 20:18:43;;;;;;;12.30;8.30;;;;;;;2.07;69.29;98830.45;226729;1275;22557;-72
2024/01/22 20:23:45;;;;;;;14.20;8.40;;;;;;;2.12;69.09;98836.43;226825;1275;22556;-72
2024/01/22 20:29:05;;;;;;;9.40;6.50;;;;;;;2.18;69.00;98839.06;226823;1272;22564;-73
2024/01/22 20:34:07;;;;;;;12.60;8.00;;;;;;;2.23;69.17;98822.48;226557;1275;22543;-73
2024/01/22 20:39:09;;;;;;;12.10;7.60;;;;;;;2.23;69.61;98809.73;226749;1275;22545;-73
2024/01/22 20:44:11;;;;;;;14.00;9.90;;;;;;;2.21;69.91;98839.30;226364;1275;551110;-73
2024/01/22 20:49:13;;;;;;;12.80;8.00;;;;;;;2.19;70.37;98843.85;226778;1272;25962;-73
2024/01/22 20:54:16;;;;;;;13.70;7.20;;;;;;;2.15;70.59;98841.36;226752;1274;22568;-73
2024/01/22 20:59:18;;;;;;;12.10;8.70;;;;;;;2.14;70.98;98822.89;226775;1275;22627;-72
2024/01/22 21:04:20;;;;;;;13.50;9.00;;;;;;;2.12;71.23;98821.77;226625;1272;25297;-72
2024/01/22 21:09:22;;;;;;;14.00;8.60;;;;;;;2.11;71.34;98832.70;226796;1275;22539;-75
2024/01/22 21:14:28;;;;;;;11.40;7.60;;;;;;;2.12;71.77;98845.13;226673;1272;22565;-73
2024/01/22 21:19:30;;;;;;;14.60;8.50;;;;;;;2.14;72.24;98834.16;226739;1275;22571;-73
2024/01/22 21:24:32;;;;;;;14.40;9.30;;;;;;;2.15;72.55;98829.95;226709;1275;22561;-73
2024/01/22 21:29:34;;;;;;;13.50;8.80;;;;;;;2.16;72.89;98833.48;226757;1275;22559;-74
2024/01/22 21:34:36;;;;;;;13.00;8.00;;;;;;;2.17;73.22;98834.78;226689;1274;22713;-74
2024/01/22 21:39:41;;;;;;;14.00;9.20;;;;;;;2.22;73.88;98852.24;226848;1272;22595;-73
2024/01/22 21:44:42;;;;;;;16.50;11.40;;;;;;;2.24;74.68;98876.08;226810;1274;22539;-72
2024/01/22 21:49:44;;;;;;;15.90;10.00;;;;;;;2.18;75.68;98885.60;226876;1273;23134;-72
2024/01/22 21:54:47;;;;;;;16.50;10.90;;;;;;;2.08;77.33;98892.88;226721;1274;24226;-74
2024/01/22 21:59:49;;;;;;;18.40;11.70;;;;;;;1.97;77.79;98902.48;226697;1272;22543;-74
2024/01/22 22:04:52;;;;;;;17.40;11.70;;;;;;;1.89;78.44;98901.36;226841;1272;24278;-75
2024/01/22 22:09:56;;;;;;;18.60;11.20;;;;;;;1.84;79.20;98906.45;226957;1274;22669;-73
2024/01/22 22:14:59;;;;;;;19.10;12.80;;;;;;;1.83;79.24;98905.84;226705;1274;22573;-74
2024/01/22 22:20:01;;;;;;;20.70;12.80;;;;;;;1.81;79.57;98911.58;226873;1274;25468;-73
2024/01/22 22:25:04;;;;;;;19.30;12.50;;;;;;;1.78;80.33;98904.80;226725;1273;22586;-74
2024/01/22 22:30:07;;;;;;;19.70;12.70;;;;;;;1.73;81.87;98897.48;226825;1273;22551;-74
2024/01/22 22:35:09;;;;;;;18.00;11.90;;;;;;;1.68;82.06;98894.42;226818;1274;22575;-74
2024/01/22 22:40:11;;;;;;;21.40;14.70;;;;;;;1.64;82.26;98892.42;226874;1273;22551;-74
2024/01/22 22:45:13;;;;;;;17.40;11.30;;;;;;;1.65;82.29;98896.04;226775;1274;25911;-74
2024/01/22 22:50:15;;;;;;;20.90;12.70;;;;;;;1.68;82.18;98894.55;226811;1272;22649;-75
2024/01/22 22:55:17;;;;;;;19.00;12.10;;;;;;;1.71;82.45;98886.66;226754;1274;22555;-74
2024/01/22 23:00:19;;;;;;;19.40;13.60;;;;;;;1.75;82.69;98878.57;226720;1274;22555;-74
2024/01/22 23:05:22;;;;;;;19.90;14.50;;;;;;;1.76;82.82;98857.94;226744;1274;22579;-73
2024/01/22 23:10:24;;;;;;;19.80;13.80;;;;;;;1.79;82.70;98888.64;226961;1264;22563;-74
2024/01/22 23:15:26;;;;;;;19.70;11.40;;;;;;;1.81;83.03;98909.48;226799;1275;22534;-73
2024/01/22 23:20:29;;;;;;;18.30;13.00;;;;;;;1.82;83.24;98916.34;226950;1270;25265;-74
2024/01/22 23:25:31;;;;;;;20.20;13.60;;;;;;;1.81;83.34;98925.23;226680;1274;22542;-72
2024/01/22 23:30:33;;;;;;;19.60;13.60;;;;;;;1.81;84.06;98925.45;226734;1274;22544;-74